createdAt,value
2024-01-05T00:01:01.757Z,0.77
2024-01-05T00:03:30.287Z,2.35
2024-01-05T00:05:58.741Z,1.95
2024-01-05T00:08:27.386Z,1.67
2024-01-05T00:10:55.650Z,2.92
2024-01-05T00:13:23.979Z,1.80
2024-01-05T00:15:52.420Z,1.50
2024-01-05T00:18:22.382Z,1.60
2024-01-05T00:20:50.844Z,1.17
2024-01-05T00:23:19.133Z,0.57
2024-01-05T00:25:47.484Z,1.00
2024-01-05T00:28:15.953Z,5.93
2024-01-05T00:30:44.362Z,2.30
2024-01-05T00:33:12.968Z,0.82
2024-01-05T00:35:42.905Z,1.08
2024-01-05T00:38:11.191Z,0.50
2024-01-05T00:40:39.538Z,0.80
2024-01-05T00:43:07.853Z,0.80
2024-01-05T00:45:36.355Z,1.80
2024-01-05T00:48:06.455Z,1.13
2024-01-05T00:50:35.026Z,1.35
2024-01-05T00:53:05.443Z,1.42
2024-01-05T00:55:35.217Z,0.98
2024-01-05T00:58:04.009Z,4.15
2024-01-05T01:00:32.612Z,1.35
2024-01-05T01:03:01.023Z,1.58
2024-01-05T01:05:29.425Z,2.58
2024-01-05T01:07:57.979Z,1.25
2024-01-05T01:10:27.729Z,0.73
2024-01-05T01:12:56.144Z,1.50
2024-01-05T01:15:24.578Z,0.80
2024-01-05T01:17:53.278Z,2.25
2024-01-05T01:20:21.810Z,2.40
2024-01-05T01:22:50.099Z,0.55
2024-01-05T01:25:19.252Z,3.28
2024-01-05T01:27:48.989Z,0.95
2024-01-05T01:30:17.705Z,1.65
2024-01-05T01:32:46.105Z,1.00
2024-01-05T01:35:14.495Z,2.60
2024-01-05T01:37:43.055Z,1.48
2024-01-05T01:40:12.417Z,0.80
2024-01-05T01:42:45.975Z,1.60
2024-01-05T01:45:16.059Z,1.60
2024-01-05T01:47:45.953Z,0.73
2024-01-05T01:50:15.800Z,1.48
2024-01-05T01:52:48.971Z,1.58
2024-01-05T01:55:18.000Z,4.28
2024-01-05T01:57:46.916Z,2.60
2024-01-05T02:00:19.765Z,1.15
2024-01-05T02:02:49.080Z,2.47
2024-01-05T02:05:18.332Z,1.48
2024-01-05T02:07:47.088Z,2.53
2024-01-05T02:10:15.393Z,0.80
2024-01-05T02:12:44.501Z,0.80
2024-01-05T02:15:12.952Z,1.13
2024-01-05T02:18:11.406Z,0.60
2024-01-05T02:20:40.034Z,0.70
2024-01-05T02:23:14.205Z,0.75
2024-01-05T02:25:44.037Z,0.68
2024-01-05T02:28:12.482Z,1.27
2024-01-05T02:30:40.801Z,1.33
2024-01-05T02:33:09.292Z,0.70
2024-01-05T02:35:37.819Z,0.65
2024-01-05T02:38:07.178Z,1.45
2024-01-05T02:40:35.630Z,1.48
2024-01-05T02:43:05.777Z,1.98
2024-01-05T02:45:34.668Z,0.70
2024-01-05T02:48:03.557Z,1.58
2024-01-05T02:50:32.009Z,1.13
2024-01-05T02:53:00.774Z,1.85
2024-01-05T02:55:29.303Z,1.73
2024-01-05T02:57:57.669Z,2.85
2024-01-05T03:00:27.552Z,3.50
2024-01-05T03:02:57.553Z,5.68
2024-01-05T03:05:26.038Z,2.17
2024-01-05T03:07:54.466Z,2.53
2024-01-05T03:10:23.149Z,2.92
2024-01-05T03:12:52.986Z,1.05
2024-01-05T03:15:21.448Z,1.67
2024-01-05T03:17:52.052Z,1.85
2024-01-05T03:20:22.077Z,1.92
2024-01-05T03:22:50.560Z,1.85
2024-01-05T03:25:18.938Z,1.50
2024-01-05T03:27:49.951Z,1.27
2024-01-05T03:30:18.486Z,2.83
2024-01-05T03:32:47.069Z,2.28
2024-01-05T03:35:16.940Z,2.65
2024-01-05T03:37:45.601Z,7.07
2024-01-05T03:40:14.193Z,3.33
2024-01-05T03:42:43.090Z,4.55
2024-01-05T03:45:12.140Z,3.95
2024-01-05T03:47:40.718Z,5.63
2024-01-05T03:50:10.426Z,8.32
2024-01-05T03:52:40.265Z,3.92
2024-01-05T03:55:09.165Z,3.30
2024-01-05T03:57:37.546Z,3.45
2024-01-05T04:00:07.021Z,1.75
2024-01-05T04:02:35.465Z,3.60
2024-01-05T04:05:03.979Z,3.25
2024-01-05T04:07:32.390Z,5.68
2024-01-05T04:10:02.265Z,3.75
2024-01-05T04:12:51.636Z,5.10
2024-01-05T04:15:20.217Z,1.67
2024-01-05T04:17:48.747Z,3.63
2024-01-05T04:20:17.256Z,3.03
2024-01-05T04:22:45.782Z,2.95
2024-01-05T04:25:15.630Z,3.28
2024-01-05T04:27:43.912Z,1.90
2024-01-05T04:30:13.329Z,2.78
2024-01-05T04:32:41.789Z,6.32
2024-01-05T04:35:10.466Z,6.35
2024-01-05T04:37:39.193Z,4.93
2024-01-05T04:40:09.241Z,3.13
2024-01-05T04:42:39.495Z,2.53
2024-01-05T04:45:11.792Z,4.13
2024-01-05T04:47:47.416Z,2.35
2024-01-05T04:50:16.039Z,2.60
2024-01-05T04:52:44.474Z,1.55
2024-01-05T04:55:16.102Z,3.97
2024-01-05T04:57:46.745Z,6.53
2024-01-05T05:00:16.311Z,7.35
2024-01-05T05:02:45.039Z,1.83
2024-01-05T05:05:13.644Z,1.60
2024-01-05T05:07:44.167Z,2.60
2024-01-05T05:10:12.549Z,1.73
2024-01-05T05:12:40.937Z,4.03
2024-01-05T05:15:11.787Z,2.50
2024-01-05T05:17:40.215Z,6.80
2024-01-05T05:20:09.410Z,2.10
2024-01-05T05:22:37.843Z,5.72
2024-01-05T05:25:07.791Z,3.08
2024-01-05T05:27:36.491Z,3.60
2024-01-05T05:30:08.781Z,2.45
2024-01-05T05:32:38.784Z,3.80
2024-01-05T05:35:08.129Z,5.10
2024-01-05T05:37:36.634Z,2.75
2024-01-05T05:40:07.280Z,4.25
2024-01-05T05:42:36.253Z,6.85
2024-01-05T05:45:05.729Z,8.13
2024-01-05T05:47:34.862Z,7.22
2024-01-05T05:50:07.161Z,10.00
2024-01-05T05:52:36.356Z,10.32
2024-01-05T05:55:06.608Z,5.78
2024-01-05T05:57:35.048Z,8.43
2024-01-05T06:00:03.450Z,5.82
2024-01-05T06:02:33.605Z,5.10
2024-01-05T06:05:04.207Z,5.72
2024-01-05T06:07:32.581Z,4.47
2024-01-05T06:10:00.989Z,9.18
2024-01-05T06:12:29.422Z,6.53
2024-01-05T06:14:57.853Z,10.65
2024-01-05T06:17:26.320Z,6.32
2024-01-05T06:19:54.774Z,14.95
2024-01-05T06:22:24.820Z,20.65
2024-01-05T06:24:53.185Z,16.73
2024-01-05T06:27:25.677Z,20.17
2024-01-05T06:30:01.305Z,17.88
2024-01-05T06:32:29.874Z,15.10
2024-01-05T06:34:58.307Z,11.43
2024-01-05T06:37:30.242Z,11.45
2024-01-05T06:39:59.059Z,9.68
2024-01-05T06:42:28.581Z,10.40
2024-01-05T06:44:57.085Z,10.43
2024-01-05T06:47:26.629Z,8.75
2024-01-05T06:49:56.191Z,3.70
2024-01-05T06:52:24.774Z,10.95
2024-01-05T06:54:54.472Z,7.18
2024-01-05T06:57:22.956Z,8.30
2024-01-05T06:59:51.380Z,11.05
2024-01-05T07:02:20.331Z,9.75
2024-01-05T07:04:48.800Z,5.53
2024-01-05T07:07:17.428Z,5.72
2024-01-05T07:09:45.874Z,8.05
2024-01-05T07:12:15.807Z,7.35
2024-01-05T07:14:44.195Z,3.13
2024-01-05T07:17:12.667Z,3.88
2024-01-05T07:19:41.978Z,2.80
2024-01-05T07:22:10.816Z,4.10
2024-01-05T07:24:39.777Z,4.03
2024-01-05T07:27:08.405Z,2.05
2024-01-05T07:29:38.568Z,3.88
2024-01-05T07:32:07.792Z,5.45
2024-01-05T07:34:36.425Z,7.55
2024-01-05T07:37:05.121Z,2.35
2024-01-05T07:39:33.921Z,3.47
2024-01-05T07:42:04.021Z,5.03
2024-01-05T07:44:32.699Z,6.20
2024-01-05T07:47:02.421Z,5.10
2024-01-05T07:49:30.837Z,3.65
2024-01-05T07:51:59.486Z,6.00
2024-01-05T07:54:28.060Z,6.90
2024-01-05T07:56:56.484Z,3.90
2024-01-05T07:59:25.015Z,6.45
2024-01-05T08:01:54.056Z,4.55
2024-01-05T08:04:23.944Z,6.78
2024-01-05T08:06:52.736Z,5.32
2024-01-05T08:09:21.235Z,7.15
2024-01-05T08:11:49.703Z,6.00
2024-01-05T08:14:18.580Z,3.53
2024-01-05T08:16:46.990Z,2.63
2024-01-05T08:19:16.328Z,6.38
2024-01-05T08:21:46.749Z,3.30
2024-01-05T08:24:15.504Z,6.50
2024-01-05T08:26:44.898Z,4.43
2024-01-05T08:29:13.201Z,4.57
2024-01-05T08:31:42.124Z,6.28
2024-01-05T08:34:11.053Z,4.82
2024-01-05T08:36:39.654Z,4.80
2024-01-05T08:39:09.530Z,7.88
2024-01-05T08:41:37.938Z,4.72
2024-01-05T08:44:06.498Z,3.35
2024-01-05T08:46:35.131Z,6.45
2024-01-05T08:49:03.825Z,4.15
2024-01-05T08:51:32.964Z,5.25
2024-01-05T08:54:03.302Z,4.40
2024-01-05T08:56:33.093Z,6.05
2024-01-05T08:59:01.578Z,8.80
2024-01-05T09:01:30.384Z,8.73
2024-01-05T09:03:58.910Z,5.22
2024-01-05T09:06:27.501Z,9.13
2024-01-05T09:08:55.879Z,13.65
2024-01-05T09:11:24.383Z,12.57
2024-01-05T09:13:54.231Z,10.88
2024-01-05T09:16:22.781Z,9.80
2024-01-05T09:18:51.242Z,9.70
2024-01-05T09:21:20.015Z,6.70
2024-01-05T09:23:48.401Z,6.35
2024-01-05T09:26:17.732Z,9.57
2024-01-05T09:28:46.299Z,9.82
2024-01-05T09:31:16.495Z,9.27
2024-01-05T09:33:45.638Z,6.90
2024-01-05T09:36:15.961Z,7.60
2024-01-05T09:39:06.577Z,9.48
2024-01-05T09:41:55.305Z,9.75
2024-01-05T09:44:44.909Z,12.57
2024-01-05T09:47:37.543Z,10.25
2024-01-05T09:50:27.145Z,8.60
2024-01-05T09:53:15.510Z,11.55
2024-01-05T09:56:05.658Z,10.32
2024-01-05T09:58:55.723Z,6.90
2024-01-05T10:01:45.117Z,7.63
2024-01-05T10:04:35.966Z,6.88
2024-01-05T10:07:24.539Z,8.32
2024-01-05T10:10:14.087Z,5.65
2024-01-05T10:13:07.847Z,6.60
2024-01-05T10:15:57.183Z,7.20
2024-01-05T10:18:46.402Z,6.28
2024-01-05T10:21:36.716Z,7.22
2024-01-05T10:24:27.520Z,9.27
2024-01-05T10:27:16.395Z,8.65
2024-01-05T10:30:06.410Z,5.93
2024-01-05T10:33:08.370Z,8.02
2024-01-05T10:36:07.364Z,9.30
2024-01-05T10:38:58.123Z,9.27
2024-01-05T10:41:48.581Z,11.27
2024-01-05T10:44:37.403Z,7.65
2024-01-05T10:47:27.635Z,6.63
2024-01-05T10:50:16.120Z,8.20
2024-01-05T10:53:05.554Z,6.32
2024-01-05T10:55:56.643Z,8.00
2024-01-05T10:58:45.458Z,8.20
2024-01-05T11:01:34.294Z,10.37
2024-01-05T11:04:26.182Z,8.15
2024-01-05T11:07:20.238Z,9.52
2024-01-05T11:10:19.882Z,7.28
2024-01-05T11:13:30.359Z,5.70
2024-01-05T11:16:45.831Z,7.70
2024-01-05T11:20:02.179Z,13.43
2024-01-05T11:22:52.490Z,9.10
2024-01-05T11:25:41.259Z,11.07
2024-01-05T11:28:39.678Z,13.30
2024-01-05T11:31:52.658Z,13.82
2024-01-05T11:34:41.809Z,13.07
2024-01-05T11:37:31.814Z,10.88
2024-01-05T11:40:29.182Z,9.45
2024-01-05T11:43:39.352Z,14.23
2024-01-05T11:46:51.991Z,11.23
2024-01-05T11:49:42.950Z,7.80
2024-01-05T11:52:31.867Z,12.70
2024-01-05T11:55:20.327Z,11.45
2024-01-05T11:58:09.549Z,8.50
2024-01-05T12:01:00.498Z,6.85
2024-01-05T12:03:49.048Z,5.97
2024-01-05T12:06:37.430Z,11.45
2024-01-05T12:09:26.038Z,7.35
2024-01-05T12:12:18.451Z,8.07
2024-01-05T12:15:10.908Z,7.38
2024-01-05T12:18:16.972Z,6.00
2024-01-05T12:21:15.632Z,8.73
2024-01-05T12:24:06.642Z,7.57
2024-01-05T12:26:55.561Z,8.45
2024-01-05T12:29:44.203Z,12.50
2024-01-05T12:32:34.445Z,23.05
2024-01-05T12:35:24.372Z,11.32
2024-01-05T12:38:12.771Z,8.85
2024-01-05T12:41:09.874Z,8.48
2024-01-05T12:43:58.476Z,25.92
2024-01-05T12:46:48.705Z,45.70
2024-01-05T12:49:38.012Z,40.00
2024-01-05T12:52:36.955Z,23.17
2024-01-05T12:55:29.429Z,13.05
2024-01-05T12:58:17.909Z,14.00
2024-01-05T13:01:07.664Z,20.90
2024-01-05T13:03:57.602Z,9.77
2024-01-05T13:06:49.233Z,27.65
2024-01-05T13:09:39.226Z,27.67
2024-01-05T13:12:27.929Z,11.90
2024-01-05T13:15:16.814Z,8.20
2024-01-05T13:18:06.405Z,14.77
2024-01-05T13:20:55.036Z,12.63
2024-01-05T13:23:45.157Z,10.73
2024-01-05T13:26:35.087Z,24.58
2024-01-05T13:29:23.491Z,12.88
2024-01-05T13:32:12.166Z,11.90
2024-01-05T13:35:01.125Z,11.70
2024-01-05T13:37:50.119Z,25.33
2024-01-05T13:40:41.465Z,15.63
2024-01-05T13:43:31.189Z,14.10
2024-01-05T13:46:19.585Z,11.63
2024-01-05T13:49:23.360Z,14.35
2024-01-05T13:52:14.459Z,13.88
2024-01-05T13:55:03.007Z,9.90
2024-01-05T13:57:51.473Z,13.27
2024-01-05T14:00:41.213Z,13.90
2024-01-05T14:03:30.940Z,12.57
2024-01-05T14:06:19.384Z,8.30
2024-01-05T14:09:08.357Z,5.72
2024-01-05T14:11:56.655Z,8.65
2024-01-05T14:14:46.341Z,11.10
2024-01-05T14:17:41.267Z,11.10
2024-01-05T14:20:29.869Z,9.93
2024-01-05T14:23:18.284Z,8.52
2024-01-05T14:26:11.125Z,16.52
2024-01-05T14:28:59.624Z,8.68
2024-01-05T14:31:48.994Z,10.90
2024-01-05T14:34:42.201Z,9.07
2024-01-05T14:37:30.855Z,11.23
2024-01-05T14:40:20.028Z,14.75
2024-01-05T14:43:08.340Z,14.77
2024-01-05T14:45:56.675Z,10.65
2024-01-05T14:48:46.813Z,11.73
2024-01-05T14:51:36.746Z,11.20
2024-01-05T14:54:25.374Z,7.65
2024-01-05T14:57:13.917Z,10.18
2024-01-05T15:00:02.488Z,13.25
2024-01-05T15:02:50.913Z,11.63
2024-01-05T15:05:39.483Z,13.77
2024-01-05T15:08:29.789Z,14.10
2024-01-05T15:11:21.900Z,14.65
2024-01-05T15:14:10.747Z,13.93
2024-01-05T15:16:59.088Z,12.35
2024-01-05T15:19:48.040Z,13.45
2024-01-05T15:22:36.539Z,12.48
2024-01-05T15:25:26.395Z,11.60
2024-01-05T15:28:15.203Z,9.40
2024-01-05T15:31:04.267Z,9.23
2024-01-05T15:33:55.403Z,15.15
2024-01-05T15:36:45.758Z,9.95
2024-01-05T15:39:34.386Z,12.40
2024-01-05T15:42:24.218Z,13.93
2024-01-05T15:45:12.698Z,13.45
2024-01-05T15:48:01.416Z,15.82
2024-01-05T15:50:49.971Z,17.02
2024-01-05T15:53:38.305Z,21.40
2024-01-05T15:56:26.832Z,14.23
2024-01-05T15:59:16.807Z,16.85
2024-01-05T16:02:05.338Z,16.13
2024-01-05T16:04:56.627Z,14.55
2024-01-05T16:07:46.757Z,14.35
2024-01-05T16:10:35.240Z,13.02
2024-01-05T16:13:23.635Z,18.98
2024-01-05T16:16:15.994Z,14.25
2024-01-05T16:19:05.516Z,11.80
2024-01-05T16:21:54.961Z,15.60
2024-01-05T16:24:43.324Z,15.18
2024-01-05T16:27:34.774Z,21.27
2024-01-05T16:30:25.159Z,15.40
2024-01-05T16:33:15.189Z,21.75
2024-01-05T16:36:04.105Z,19.58
2024-01-05T16:38:52.710Z,19.98
2024-01-05T16:41:41.049Z,17.90
2024-01-05T16:44:29.457Z,15.32
2024-01-05T16:47:17.774Z,16.75
2024-01-05T16:50:08.532Z,12.05
2024-01-05T16:52:56.897Z,15.90
2024-01-05T16:55:45.342Z,18.90
2024-01-05T16:58:33.726Z,20.95
2024-01-05T17:01:22.856Z,20.77
2024-01-05T17:04:11.694Z,19.90
2024-01-05T17:07:02.070Z,19.95
2024-01-05T17:09:53.229Z,18.40
2024-01-05T17:12:42.277Z,20.67
2024-01-05T17:15:32.134Z,18.95
2024-01-05T17:18:22.980Z,17.65
2024-01-05T17:21:14.042Z,16.60
2024-01-05T17:24:03.814Z,20.50
2024-01-05T17:26:52.230Z,14.35
2024-01-05T17:29:40.523Z,23.42
2024-01-05T17:32:28.820Z,19.75
2024-01-05T17:35:17.155Z,18.90
2024-01-05T17:38:05.803Z,17.23
2024-01-05T17:40:58.772Z,19.75
2024-01-05T17:43:47.113Z,21.48
2024-01-05T17:46:39.601Z,28.88
2024-01-05T17:49:28.150Z,19.70
2024-01-05T17:52:17.818Z,24.23
2024-01-05T17:55:06.784Z,43.85
2024-01-05T17:57:56.939Z,30.25
2024-01-05T18:00:25.560Z,23.75
2024-01-05T18:02:54.454Z,24.05
2024-01-05T18:05:23.239Z,24.05
2024-01-05T18:07:54.598Z,27.00
2024-01-05T18:10:23.753Z,22.98
2024-01-05T18:12:52.136Z,30.67
2024-01-05T18:15:21.928Z,31.05
2024-01-05T18:17:50.373Z,26.35
2024-01-05T18:20:19.199Z,29.80
2024-01-05T18:22:47.550Z,27.45
2024-01-05T18:25:15.905Z,23.38
2024-01-05T18:27:44.440Z,22.23
2024-01-05T18:30:13.847Z,24.63
2024-01-05T18:32:43.760Z,24.70
2024-01-05T18:35:12.356Z,24.23
2024-01-05T18:37:41.990Z,27.17
2024-01-05T18:40:11.449Z,24.77
2024-01-05T18:42:39.749Z,27.38
2024-01-05T18:45:09.191Z,25.42
2024-01-05T18:47:37.653Z,22.88
2024-01-05T18:50:08.847Z,27.60
2024-01-05T18:52:37.462Z,19.88
2024-01-05T18:55:07.070Z,27.00
2024-01-05T18:57:35.570Z,24.17
2024-01-05T19:00:04.235Z,28.55
2024-01-05T19:02:33.584Z,26.30
2024-01-05T19:05:02.091Z,30.20
2024-01-05T19:07:32.163Z,26.33
2024-01-05T19:10:00.574Z,27.70
2024-01-05T19:12:28.892Z,33.58
2024-01-05T19:14:57.313Z,23.20
2024-01-05T19:17:25.896Z,32.20
2024-01-05T19:19:54.575Z,27.05
2024-01-05T19:22:22.986Z,24.38
2024-01-05T19:24:53.015Z,26.98
2024-01-05T19:27:21.675Z,22.50
2024-01-05T19:29:50.660Z,29.77
2024-01-05T19:32:19.005Z,28.30
2024-01-05T19:34:47.595Z,28.67
2024-01-05T19:37:15.936Z,25.15
2024-01-05T19:39:44.815Z,21.85
2024-01-05T19:42:19.093Z,27.80
2024-01-05T19:44:47.576Z,21.83
2024-01-05T19:47:17.144Z,23.10
2024-01-05T19:49:46.063Z,23.33
2024-01-05T19:52:15.463Z,23.33
2024-01-05T19:54:44.344Z,30.67
2024-01-05T19:57:14.606Z,25.77
2024-01-05T19:59:44.315Z,28.98
2024-01-05T20:02:12.610Z,24.88
2024-01-05T20:04:41.176Z,25.25
2024-01-05T20:07:11.207Z,26.67
2024-01-05T20:09:39.895Z,24.75
2024-01-05T20:12:10.564Z,24.40
2024-01-05T20:14:40.365Z,25.50
2024-01-05T20:17:08.889Z,24.83
2024-01-05T20:19:57.745Z,23.95
2024-01-05T20:22:26.273Z,28.25
2024-01-05T20:24:54.921Z,22.08
2024-01-05T20:27:23.406Z,28.98
2024-01-05T20:29:53.049Z,30.77
2024-01-05T20:32:21.391Z,23.00
2024-01-05T20:34:49.793Z,20.00
2024-01-05T20:37:18.210Z,17.40
2024-01-05T20:39:47.842Z,32.08
2024-01-05T20:42:16.445Z,25.33
2024-01-05T20:44:45.652Z,23.92
2024-01-05T20:47:15.684Z,24.90
2024-01-05T20:49:44.562Z,19.55
2024-01-05T20:52:13.182Z,22.08
2024-01-05T20:54:42.326Z,28.15
2024-01-05T20:57:11.954Z,21.15
2024-01-05T20:59:41.211Z,27.77
2024-01-05T21:02:09.510Z,28.27
2024-01-05T21:04:39.216Z,28.23
2024-01-05T21:07:07.691Z,21.73
2024-01-05T21:09:36.283Z,29.05
2024-01-05T21:12:05.037Z,28.35
2024-01-05T21:14:34.692Z,30.38
2024-01-05T21:17:06.172Z,24.63
2024-01-05T21:19:34.555Z,22.08
2024-01-05T21:22:04.407Z,27.13
2024-01-05T21:24:32.898Z,29.30
2024-01-05T21:27:01.578Z,23.27
2024-01-05T21:29:31.138Z,29.02
2024-01-05T21:31:59.437Z,26.35
2024-01-05T21:34:27.834Z,28.25
2024-01-05T21:36:56.342Z,29.98
2024-01-05T21:39:33.007Z,35.00
2024-01-05T21:42:01.747Z,48.90
2024-01-05T21:44:30.244Z,71.80
2024-01-05T21:46:59.162Z,28.17
2024-01-05T21:49:29.654Z,29.25
2024-01-05T21:52:00.198Z,35.15
2024-01-05T21:54:30.147Z,23.25
2024-01-05T21:56:59.612Z,21.83
2024-01-05T21:59:42.230Z,23.08
2024-01-05T22:02:12.195Z,25.45
2024-01-05T22:04:40.894Z,28.92
2024-01-05T22:07:09.378Z,23.55
2024-01-05T22:09:40.056Z,26.05
2024-01-05T22:12:09.431Z,22.80
2024-01-05T22:14:38.022Z,23.33
2024-01-05T22:17:06.670Z,29.52
2024-01-05T22:19:35.677Z,25.08
2024-01-05T22:22:04.362Z,35.00
2024-01-05T22:24:32.810Z,38.20
2024-01-05T22:27:07.445Z,39.38
2024-01-05T22:29:36.240Z,34.95
2024-01-05T22:32:04.753Z,43.78
2024-01-05T22:34:34.195Z,40.58
2024-01-05T22:37:07.207Z,37.55
2024-01-05T22:39:38.602Z,40.70
2024-01-05T22:42:09.074Z,40.13
2024-01-05T22:44:42.888Z,49.10
2024-01-05T22:47:11.643Z,48.28
2024-01-05T22:49:41.539Z,40.08
2024-01-05T22:52:10.312Z,36.25
2024-01-05T22:54:41.338Z,40.17
2024-01-05T22:57:11.901Z,39.25
2024-01-05T22:59:41.428Z,34.00
2024-01-05T23:02:09.994Z,26.25
2024-01-05T23:04:41.620Z,31.58
2024-01-05T23:07:10.378Z,29.65
2024-01-05T23:09:38.923Z,32.80
2024-01-05T23:12:09.136Z,34.83
2024-01-05T23:14:41.350Z,31.50
2024-01-05T23:17:09.669Z,31.30
2024-01-05T23:19:39.985Z,35.50
2024-01-05T23:22:08.734Z,32.58
2024-01-05T23:24:37.180Z,39.97
2024-01-05T23:27:05.936Z,28.25
2024-01-05T23:29:36.043Z,33.80
2024-01-05T23:32:08.349Z,39.22
2024-01-05T23:34:37.229Z,45.03
2024-01-05T23:37:05.982Z,36.83
2024-01-05T23:39:34.659Z,27.95
2024-01-05T23:42:05.391Z,25.85
2024-01-05T23:44:34.716Z,26.63
2024-01-05T23:47:05.415Z,34.25
2024-01-05T23:49:33.901Z,33.33
2024-01-05T23:52:02.709Z,28.42
2024-01-05T23:54:31.052Z,34.05
2024-01-05T23:56:59.537Z,39.85
2024-01-05T23:59:28.013Z,36.65
